Time;durP1;ratioP1;P1;durP2;ratioP2;P2;SDS_P1;SDS_P2;PMS_P1;PMS_P2;Temp;Humidity;BMP_temperature;BMP_pressure;BME280_temperature;BME280_humidity;BME280_pressure;Samples;Min_cycle;Max_cycle;Signal;HPM_P1;HPM_P2
2022/03/01 00:00:50;;;;;;;14.63;9.55;;;5.20;70.80;;;;;;6125530;22;98556;-70
2022/03/01 00:03:18;;;;;;;18.38;11.45;;;5.10;71.10;;;;;;6125929;22;98438;-70
2022/03/01 00:05:45;;;;;;;16.10;10.50;;;5.10;70.90;;;;;;6124454;22;99308;-70
2022/03/01 00:08:12;;;;;;;16.63;10.63;;;5.00;71.40;;;;;;6124883;22;98933;-70
2022/03/01 00:10:39;;;;;;;18.17;12.40;;;5.00;71.10;;;;;;6150671;22;103400;-70
2022/03/01 00:13:07;;;;;;;16.00;10.30;;;5.00;71.60;;;;;;6124863;22;98875;-70
2022/03/01 00:15:34;;;;;;;16.35;11.10;;;5.00;72.60;;;;;;6150496;22;99971;-70
2022/03/01 00:18:01;;;;;;;16.27;10.25;;;5.00;71.70;;;;;;6151175;22;99538;-70
2022/03/01 00:20:31;;;;;;;16.08;10.02;;;4.90;72.00;;;;;;6151243;22;98449;-70
2022/03/01 00:22:58;;;;;;;16.13;10.60;;;4.90;72.00;;;;;;6124903;22;98598;-70
2022/03/01 00:25:25;;;;;;;14.80;9.50;;;4.80;72.30;;;;;;6124885;22;99557;-71
2022/03/01 00:27:52;;;;;;;15.82;10.00;;;4.80;72.70;;;;;;6125157;22;98894;-70
2022/03/01 00:30:19;;;;;;;17.10;10.25;;;4.80;72.40;;;;;;6151493;22;98465;-70
2022/03/01 00:32:46;;;;;;;13.52;9.30;;;4.80;72.70;;;;;;6100283;22;97839;-70
2022/03/01 00:35:13;;;;;;;13.60;9.57;;;4.70;74.10;;;;;;6151698;22;99227;-70
2022/03/01 00:37:40;;;;;;;14.27;9.85;;;4.70;73.00;;;;;;6124167;22;117378;-70
2022/03/01 00:40:08;;;;;;;16.67;10.93;;;4.80;73.20;;;;;;6151754;22;99261;-70
2022/03/01 00:42:35;;;;;;;12.63;9.38;;;4.70;73.10;;;;;;6124153;22;98571;-70
2022/03/01 00:45:02;;;;;;;14.45;10.23;;;4.70;73.30;;;;;;6151625;22;99346;-70
2022/03/01 00:47:29;;;;;;;14.18;10.45;;;4.70;73.40;;;;;;6150901;22;98955;-70
2022/03/01 00:49:57;;;;;;;13.43;9.20;;;4.70;73.50;;;;;;6151128;22;98354;-70
2022/03/01 00:52:24;;;;;;;15.50;9.68;;;4.60;73.30;;;;;;6125853;22;98563;-70
2022/03/01 00:54:51;;;;;;;16.52;10.57;;;4.60;73.70;;;;;;6124913;22;99183;-70
2022/03/01 00:57:18;;;;;;;13.93;10.98;;;4.60;73.90;;;;;;6124353;22;101714;-70
2022/03/01 00:59:45;;;;;;;13.40;10.23;;;4.60;73.70;;;;;;6124695;22;98462;-70
2022/03/01 01:02:12;;;;;;;14.23;10.50;;;4.60;74.00;;;;;;6151334;22;98751;-70
2022/03/01 01:04:39;;;;;;;17.08;9.95;;;4.60;74.20;;;;;;6123192;22;102692;-70
2022/03/01 01:07:07;;;;;;;15.57;10.70;;;4.60;73.80;;;;;;6124548;22;103030;-70
2022/03/01 01:09:34;;;;;;;17.67;11.55;;;4.50;74.20;;;;;;6151360;22;98415;-70
2022/03/01 01:12:01;;;;;;;14.88;9.02;;;4.50;74.90;;;;;;6151006;22;98484;-70
2022/03/01 01:14:28;;;;;;;15.85;10.70;;;4.50;75.10;;;;;;6151482;22;99269;-70
2022/03/01 01:16:55;;;;;;;18.10;11.60;;;4.50;74.90;;;;;;6150483;22;99046;-70
2022/03/01 01:19:22;;;;;;;15.13;11.13;;;4.50;74.90;;;;;;6124039;22;98860;-70
2022/03/01 01:24:35;;;;;;;13.93;9.60;;;4.40;74.90;;;;;;6150810;22;99411;-70
2022/03/01 01:27:03;;;;;;;13.73;9.65;;;4.40;75.00;;;;;;6124138;22;100006;-70
2022/03/01 01:29:30;;;;;;;16.42;10.73;;;4.30;74.60;;;;;;6125539;22;99750;-70
2022/03/01 01:31:56;;;;;;;15.30;11.25;;;4.40;74.80;;;;;;6123863;22;103671;-70
2022/03/01 01:34:23;;;;;;;15.18;11.15;;;4.40;74.70;;;;;;6150703;22;99556;-70
2022/03/01 01:36:50;;;;;;;14.95;11.30;;;4.40;74.60;;;;;;6150446;22;98857;-70
2022/03/01 01:39:17;;;;;;;14.00;9.85;;;4.30;75.70;;;;;;6150880;22;98421;-70
2022/03/01 01:41:44;;;;;;;15.75;11.27;;;4.30;75.50;;;;;;6124858;22;98556;-70
2022/03/01 01:44:11;;;;;;;18.42;12.13;;;4.30;76.10;;;;;;6123712;22;102020;-70
2022/03/01 01:46:39;;;;;;;14.73;11.10;;;4.30;75.30;;;;;;6151116;22;99201;-70
2022/03/01 01:49:06;;;;;;;16.52;10.73;;;4.30;75.70;;;;;;6150887;22;98761;-70
2022/03/01 01:51:33;;;;;;;17.75;11.02;;;4.20;75.70;;;;;;6124701;22;98535;-70
2022/03/01 01:54:00;;;;;;;18.52;11.15;;;4.20;75.50;;;;;;6149872;22;99797;-70
2022/03/01 01:56:27;;;;;;;16.80;11.32;;;4.20;75.50;;;;;;6123840;22;102250;-70
2022/03/01 01:58:54;;;;;;;17.63;10.80;;;4.20;75.50;;;;;;6124564;22;98920;-70
2022/03/01 02:01:23;;;;;;;18.25;11.60;;;4.10;75.50;;;;;;6124069;22;98646;-70
2022/03/01 02:03:50;;;;;;;17.20;10.98;;;4.10;75.50;;;;;;6099092;22;102277;-70
2022/03/01 02:06:17;;;;;;;16.10;10.15;;;4.10;75.60;;;;;;6150575;22;99054;-70
2022/03/01 02:08:44;;;;;;;16.20;11.20;;;4.00;76.00;;;;;;6150961;22;98427;-70
2022/03/01 02:11:11;;;;;;;16.23;11.10;;;4.00;75.80;;;;;;6075381;22;97788;-70
2022/03/01 02:13:38;;;;;;;17.45;11.23;;;4.00;75.90;;;;;;6123099;22;117831;-70
2022/03/01 02:16:05;;;;;;;17.60;12.30;;;4.00;76.10;;;;;;6123458;22;101672;-70
2022/03/01 02:18:32;;;;;;;18.77;11.18;;;4.00;76.20;;;;;;6123667;22;99272;-70
2022/03/01 02:20:59;;;;;;;15.13;10.77;;;3.90;76.30;;;;;;6124343;22;98396;-70
2022/03/01 02:23:26;;;;;;;16.98;10.60;;;3.90;76.90;;;;;;6124018;22;99281;-70
2022/03/01 02:25:53;;;;;;;19.65;11.82;;;3.90;76.50;;;;;;6123736;22;99026;-70
2022/03/01 02:28:20;;;;;;;20.52;12.00;;;3.90;76.50;;;;;;6150805;22;98530;-70
2022/03/01 02:30:47;;;;;;;18.25;11.88;;;3.90;76.40;;;;;;6150830;22;99360;-70
2022/03/01 02:33:15;;;;;;;16.98;11.38;;;3.90;76.50;;;;;;6099157;22;101817;-70
2022/03/01 02:35:42;;;;;;;16.70;11.00;;;3.90;77.00;;;;;;6124057;22;109068;-70
2022/03/01 02:38:09;;;;;;;18.13;12.35;;;3.90;76.80;;;;;;6150729;22;98509;-70
2022/03/01 02:40:35;;;;;;;19.05;12.85;;;3.90;76.30;;;;;;6150737;22;98451;-70
2022/03/01 02:43:02;;;;;;;19.63;12.82;;;3.80;76.10;;;;;;6149503;22;100063;-70
2022/03/01 02:45:29;;;;;;;17.80;11.55;;;3.80;76.70;;;;;;6123249;22;101966;-70
2022/03/01 02:47:56;;;;;;;17.50;12.20;;;3.80;76.70;;;;;;6150369;22;98360;-69
2022/03/01 02:50:23;;;;;;;18.05;12.00;;;3.80;76.60;;;;;;6124203;22;98474;-70
2022/03/01 02:52:50;;;;;;;21.15;12.80;;;3.70;76.50;;;;;;6123546;22;99471;-70
2022/03/01 02:55:17;;;;;;;18.75;12.55;;;3.70;77.00;;;;;;6150174;22;98704;-70
2022/03/01 02:57:44;;;;;;;18.48;11.60;;;3.70;77.50;;;;;;6150556;22;98433;-70
2022/03/01 03:00:12;;;;;;;21.10;13.65;;;3.60;77.70;;;;;;6150759;22;98265;-70
2022/03/01 03:02:41;;;;;;;21.85;12.77;;;3.60;78.00;;;;;;6149990;22;99381;-70
2022/03/01 03:05:08;;;;;;;20.75;13.82;;;3.60;78.20;;;;;;6123588;22;99168;-70
2022/03/01 03:07:35;;;;;;;18.92;12.35;;;3.60;78.00;;;;;;6150046;22;99102;-70
2022/03/01 03:10:04;;;;;;;17.70;11.45;;;3.60;77.60;;;;;;6150309;22;98462;-70
2022/03/01 03:12:31;;;;;;;18.45;12.13;;;3.60;77.90;;;;;;6123572;22;99149;-70
2022/03/01 03:14:58;;;;;;;19.80;12.85;;;3.50;77.70;;;;;;6149770;22;98957;-70
2022/03/01 03:17:25;;;;;;;19.90;13.05;;;3.50;77.90;;;;;;6123330;22;102325;-70
2022/03/01 03:19:52;;;;;;;20.52;12.32;;;3.50;77.90;;;;;;6123918;22;98570;-70
2022/03/01 03:22:20;;;;;;;19.55;12.93;;;3.50;77.90;;;;;;6073799;22;101983;-70
2022/03/01 03:24:47;;;;;;;19.98;11.57;;;3.50;78.10;;;;;;6123445;22;101633;-70
2022/03/01 03:27:14;;;;;;;20.30;12.40;;;3.50;77.90;;;;;;6150021;22;98407;-70
2022/03/01 03:29:41;;;;;;;19.92;12.55;;;3.50;78.30;;;;;;6150326;22;98420;-70
2022/03/01 03:32:08;;;;;;;19.20;12.38;;;3.40;78.40;;;;;;6122481;22;102548;-70
2022/03/01 03:34:35;;;;;;;18.92;12.50;;;3.40;78.50;;;;;;6123099;22;102373;-70
2022/03/01 03:37:03;;;;;;;19.90;13.80;;;3.40;78.10;;;;;;6149626;22;99510;-70
2022/03/01 03:39:30;;;;;;;19.60;12.10;;;3.40;78.30;;;;;;6123990;22;99007;-70
2022/03/01 03:41:57;;;;;;;24.10;13.25;;;3.40;78.30;;;;;;6149614;22;99267;-70
2022/03/01 03:44:24;;;;;;;20.27;12.52;;;3.30;78.40;;;;;;6150994;22;98981;-70
2022/03/01 03:46:52;;;;;;;19.05;12.45;;;3.40;78.10;;;;;;6151656;22;98457;-70
2022/03/01 03:49:19;;;;;;;22.88;13.40;;;3.30;78.00;;;;;;6124965;22;97800;-70
2022/03/01 03:51:46;;;;;;;22.45;13.63;;;3.30;78.10;;;;;;6124280;22;101875;-69
2022/03/01 03:54:14;;;;;;;20.98;13.15;;;3.30;78.10;;;;;;6150942;22;99110;-70
2022/03/01 03:56:41;;;;;;;22.25;13.15;;;3.30;78.40;;;;;;6124280;22;101563;-70
2022/03/01 03:59:08;;;;;;;19.55;12.82;;;3.30;78.40;;;;;;6100118;22;98639;-70
2022/03/01 04:01:35;;;;;;;21.48;13.38;;;3.30;78.50;;;;;;6099934;22;99426;-70
2022/03/01 04:04:03;;;;;;;24.55;14.50;;;3.20;79.10;;;;;;6099977;22;98997;-69
2022/03/01 04:06:30;;;;;;;21.30;13.63;;;3.30;78.70;;;;;;6151085;22;98834;-69
2022/03/01 04:08:58;;;;;;;21.70;13.75;;;3.30;78.90;;;;;;6100960;22;98524;-70
2022/03/01 04:11:25;;;;;;;20.15;13.02;;;3.40;78.70;;;;;;6124416;22;99384;-70
2022/03/01 04:13:52;;;;;;;23.67;13.75;;;3.40;78.80;;;;;;6100485;22;99412;-70
2022/03/01 04:16:20;;;;;;;21.10;12.52;;;3.40;78.50;;;;;;6151197;22;98495;-70
2022/03/01 04:18:47;;;;;;;21.77;13.05;;;3.40;78.80;;;;;;6124765;22;99088;-69
2022/03/01 04:21:14;;;;;;;21.13;12.82;;;3.40;78.70;;;;;;6124033;22;100063;-70
2022/03/01 04:23:41;;;;;;;21.92;13.15;;;3.40;78.60;;;;;;6150350;22;112958;-69
2022/03/01 04:26:13;;;;;;;18.40;12.73;;;3.40;78.60;;;;;;6151384;22;98794;-70
2022/03/01 04:28:40;;;;;;;20.55;13.15;;;3.40;78.80;;;;;;6151484;22;98499;-70
2022/03/01 04:31:06;;;;;;;19.38;12.93;;;3.40;79.20;;;;;;6124398;22;99265;-70
2022/03/01 04:33:34;;;;;;;19.75;13.27;;;3.40;79.50;;;;;;6151073;22;99535;-70
2022/03/01 04:36:02;;;;;;;22.17;13.13;;;3.40;79.80;;;;;;6151460;22;98460;-70
2022/03/01 04:38:30;;;;;;;19.42;13.77;;;3.50;79.50;;;;;;6124875;22;97696;-70
2022/03/01 04:40:57;;;;;;;19.67;12.93;;;3.50;79.90;;;;;;6151133;22;99187;-70
2022/03/01 04:43:24;;;;;;;20.65;12.57;;;3.50;79.50;;;;;;6149971;22;114477;-70
2022/03/01 04:45:51;;;;;;;18.30;13.23;;;3.50;79.50;;;;;;6124559;22;99323;-70
2022/03/01 04:48:19;;;;;;;21.55;13.50;;;3.50;80.10;;;;;;6124342;22;98520;-70
2022/03/01 04:50:46;;;;;;;20.65;13.10;;;3.50;79.60;;;;;;6123995;22;101677;-70
2022/03/01 04:53:13;;;;;;;19.73;12.57;;;3.50;79.30;;;;;;6124045;22;101588;-70
2022/03/01 04:55:40;;;;;;;19.85;13.60;;;3.50;79.10;;;;;;6124175;22;98549;-70
2022/03/01 04:58:07;;;;;;;24.08;13.90;;;3.50;79.20;;;;;;6124389;22;98520;-70
2022/03/01 05:00:34;;;;;;;21.30;14.02;;;3.50;79.20;;;;;;6150273;22;112602;-70
2022/03/01 05:03:01;;;;;;;22.15;14.30;;;3.50;79.40;;;;;;6125033;22;99044;-70
2022/03/01 05:05:30;;;;;;;20.05;13.48;;;3.50;79.30;;;;;;6124920;22;98600;-70
2022/03/01 05:07:57;;;;;;;23.02;13.23;;;3.50;79.30;;;;;;6151495;22;98448;-70
2022/03/01 05:10:24;;;;;;;21.40;13.55;;;3.50;79.30;;;;;;6150048;22;100019;-70
2022/03/01 05:12:54;;;;;;;21.13;13.20;;;3.50;79.60;;;;;;6099877;22;99820;-70
2022/03/01 05:15:22;;;;;;;20.27;14.50;;;3.50;80.00;;;;;;6151037;22;98451;-70
2022/03/01 05:17:49;;;;;;;21.80;12.93;;;3.50;79.60;;;;;;6151387;22;99384;-69
2022/03/01 05:20:18;;;;;;;24.35;13.10;;;3.50;79.60;;;;;;6123597;22;101797;-70
2022/03/01 05:22:46;;;;;;;19.92;12.75;;;3.50;79.70;;;;;;6124774;22;99034;-70
2022/03/01 05:25:15;;;;;;;21.67;13.65;;;3.60;79.90;;;;;;6124589;22;98731;-70
2022/03/01 05:27:44;;;;;;;19.35;13.77;;;3.60;79.70;;;;;;6151702;22;97716;-70
2022/03/01 05:30:13;;;;;;;18.30;13.15;;;3.60;79.60;;;;;;6124238;22;99328;-70
2022/03/01 05:32:42;;;;;;;20.92;13.68;;;3.60;79.60;;;;;;6124357;22;99994;-69
2022/03/01 05:35:11;;;;;;;21.58;13.45;;;3.60;79.60;;;;;;6150734;22;99220;-70
2022/03/01 05:37:41;;;;;;;19.40;13.05;;;3.60;79.40;;;;;;6151227;22;98412;-70
2022/03/01 05:40:10;;;;;;;19.55;13.60;;;3.60;79.60;;;;;;6150716;22;99176;-70
2022/03/01 05:42:37;;;;;;;20.15;12.73;;;3.60;79.20;;;;;;6098547;22;103177;-70
2022/03/01 05:45:05;;;;;;;22.42;12.55;;;3.60;79.00;;;;;;6124939;22;98868;-70
2022/03/01 05:47:32;;;;;;;20.45;12.57;;;3.60;79.40;;;;;;6123905;22;98466;-70
2022/03/01 05:49:59;;;;;;;20.02;13.68;;;3.70;79.60;;;;;;6123712;22;107373;-70
2022/03/01 05:52:27;;;;;;;19.70;12.90;;;3.70;79.20;;;;;;6150866;22;98994;-70
2022/03/01 05:54:54;;;;;;;19.92;13.20;;;3.70;79.40;;;;;;6124449;22;98451;-70
2022/03/01 05:57:24;;;;;;;18.45;12.50;;;3.70;80.40;;;;;;6124448;22;98535;-70
2022/03/01 05:59:50;;;;;;;18.67;11.38;;;3.70;79.30;;;;;;6124602;22;99897;-70
2022/03/01 06:02:18;;;;;;;22.17;14.77;;;3.70;79.20;;;;;;6150203;22;99684;-70
2022/03/01 06:04:45;;;;;;;22.98;14.93;;;3.70;79.10;;;;;;6124600;22;99123;-70
2022/03/01 06:07:12;;;;;;;21.15;12.60;;;3.70;79.10;;;;;;6124204;22;98517;-70
2022/03/01 06:09:39;;;;;;;21.63;13.82;;;3.70;79.50;;;;;;6150223;22;99292;-69
2022/03/01 06:12:07;;;;;;;19.90;13.65;;;3.70;80.20;;;;;;6123805;22;104764;-70
2022/03/01 06:14:34;;;;;;;20.30;13.40;;;3.70;79.60;;;;;;6124120;22;98621;-70
2022/03/01 06:17:00;;;;;;;18.83;13.00;;;3.70;79.70;;;;;;6151128;22;97734;-70
2022/03/01 06:19:27;;;;;;;21.13;14.02;;;3.70;79.30;;;;;;6149482;22;99336;-69
2022/03/01 06:21:55;;;;;;;19.25;13.55;;;3.80;79.00;;;;;;6123480;22;101539;-70
2022/03/01 06:24:23;;;;;;;19.05;12.98;;;3.80;78.90;;;;;;6150325;22;99266;-70
2022/03/01 06:26:50;;;;;;;24.50;14.18;;;3.80;79.00;;;;;;6123903;22;98462;-70
2022/03/01 06:29:17;;;;;;;24.15;14.60;;;3.80;78.80;;;;;;6123871;22;99218;-70
2022/03/01 06:31:44;;;;;;;19.45;13.88;;;3.80;79.20;;;;;;6123651;22;101683;-70
2022/03/01 06:34:11;;;;;;;20.85;13.55;;;3.80;78.60;;;;;;6123326;22;104799;-70
2022/03/01 06:36:38;;;;;;;19.92;13.05;;;3.90;78.40;;;;;;6150526;22;98486;-70
2022/03/01 06:39:05;;;;;;;19.00;13.40;;;3.90;78.30;;;;;;6123620;22;99218;-70
2022/03/01 06:41:32;;;;;;;22.55;14.48;;;3.90;78.40;;;;;;6123612;22;100143;-70
2022/03/01 06:43:59;;;;;;;20.15;12.98;;;3.90;78.70;;;;;;6124065;22;98447;-70
2022/03/01 06:46:26;;;;;;;19.30;12.75;;;4.00;78.70;;;;;;6123821;22;98606;-70
2022/03/01 06:48:53;;;;;;;21.88;13.43;;;4.10;78.40;;;;;;6122901;22;102532;-70
2022/03/01 06:51:20;;;;;;;19.35;12.77;;;4.10;77.90;;;;;;6123669;22;102330;-70
2022/03/01 06:53:47;;;;;;;21.35;14.30;;;4.10;78.20;;;;;;6150559;22;98424;-70
2022/03/01 06:56:14;;;;;;;20.23;14.45;;;4.10;78.50;;;;;;6150553;22;98471;-70
2022/03/01 06:58:41;;;;;;;20.27;13.95;;;4.20;77.90;;;;;;6122553;22;112922;-70
2022/03/01 07:01:08;;;;;;;18.38;13.00;;;4.30;77.80;;;;;;6123271;22;101573;-70
2022/03/01 07:03:39;;;;;;;18.85;12.30;;;4.30;77.80;;;;;;6122930;22;98472;-70
2022/03/01 07:06:06;;;;;;;18.35;12.90;;;4.30;77.10;;;;;;6124071;22;97819;-70
2022/03/01 07:08:33;;;;;;;19.30;13.23;;;4.40;77.50;;;;;;6149874;22;99113;-70
2022/03/01 07:11:00;;;;;;;18.88;13.07;;;4.50;76.90;;;;;;6123550;22;98948;-70
2022/03/01 07:13:27;;;;;;;20.70;13.90;;;4.60;76.70;;;;;;6149627;22;99183;-70
2022/03/01 07:15:54;;;;;;;24.30;13.93;;;4.70;76.50;;;;;;6099180;22;98488;-70
2022/03/01 07:18:24;;;;;;;21.27;13.10;;;4.70;76.00;;;;;;6124974;22;99314;-70
2022/03/01 07:20:51;;;;;;;20.50;13.20;;;4.80;76.00;;;;;;6124047;22;101689;-70
2022/03/01 07:23:18;;;;;;;20.08;12.95;;;4.90;75.70;;;;;;6151923;22;98469;-70
2022/03/01 07:25:45;;;;;;;19.45;13.68;;;4.90;75.50;;;;;;6124705;22;98473;-70
2022/03/01 07:28:11;;;;;;;20.95;13.57;;;5.10;75.70;;;;;;6123784;22;100098;-70
2022/03/01 07:30:38;;;;;;;19.58;13.02;;;5.20;75.80;;;;;;6124810;22;98884;-70
2022/03/01 07:33:05;;;;;;;18.88;12.55;;;5.30;75.10;;;;;;6124643;22;98531;-70
2022/03/01 07:35:32;;;;;;;22.23;14.73;;;5.40;75.10;;;;;;6124434;22;98539;-70
2022/03/01 07:38:00;;;;;;;19.48;13.65;;;5.50;75.00;;;;;;6150682;22;99951;-70
2022/03/01 07:40:27;;;;;;;20.33;13.02;;;5.60;74.70;;;;;;6124272;22;99816;-70
2022/03/01 07:42:54;;;;;;;20.88;13.82;;;5.70;73.60;;;;;;6151520;22;98489;-70
2022/03/01 07:45:22;;;;;;;23.25;14.05;;;5.80;73.80;;;;;;6124658;22;98923;-70
2022/03/01 07:47:50;;;;;;;19.13;13.45;;;5.80;73.40;;;;;;6146322;22;99315;-70
2022/03/01 07:50:17;;;;;;;21.52;14.07;;;5.90;73.40;;;;;;6151141;22;99124;-70
2022/03/01 07:52:44;;;;;;;18.90;12.77;;;6.10;73.30;;;;;;6124483;22;98563;-70
2022/03/01 07:55:11;;;;;;;18.60;13.35;;;6.20;72.00;;;;;;6152060;22;97709;-70
2022/03/01 07:57:38;;;;;;;17.15;12.43;;;6.30;71.90;;;;;;6150724;22;99268;-70
2022/03/01 08:00:06;;;;;;;18.98;13.18;;;6.40;71.50;;;;;;6151158;22;99502;-70
2022/03/01 08:02:39;;;;;;;17.38;12.35;;;6.50;71.20;;;;;;6150845;22;99596;-70
2022/03/01 08:05:08;;;;;;;21.67;13.30;;;6.60;70.90;;;;;;6151413;22;98531;-70
2022/03/01 08:07:47;;;;;;;20.65;13.57;;;6.70;70.60;;;;;;6126935;22;99257;-70
2022/03/01 08:10:14;;;;;;;20.17;14.02;;;6.70;70.20;;;;;;6151059;22;98903;-70
2022/03/01 08:12:41;;;;;;;19.30;13.10;;;6.90;70.60;;;;;;6125003;22;98511;-70
2022/03/01 08:15:09;;;;;;;22.75;13.98;;;7.00;69.80;;;;;;6151476;22;98439;-70
2022/03/01 08:17:44;;;;;;;21.60;13.65;;;7.10;69.80;;;;;;6100279;22;99856;-70
2022/03/01 08:20:11;;;;;;;19.45;13.20;;;7.20;69.30;;;;;;6124756;22;102040;-70
2022/03/01 08:22:40;;;;;;;29.42;23.40;;;7.20;69.20;;;;;;6151179;22;98393;-70
2022/03/01 08:25:08;;;;;;;23.88;14.55;;;7.20;69.20;;;;;;6151293;22;98481;-70
2022/03/01 08:27:35;;;;;;;48.78;34.67;;;7.30;68.90;;;;;;6123641;22;102480;-71
2022/03/01 08:30:05;;;;;;;33.35;29.92;;;7.40;69.00;;;;;;6123831;22;102214;-70
2022/03/01 08:32:33;;;;;;;21.67;14.80;;;7.40;69.20;;;;;;6124679;22;98662;-70
2022/03/01 08:34:59;;;;;;;21.08;15.18;;;7.50;68.20;;;;;;6124626;22;98535;-70
2022/03/01 08:37:27;;;;;;;40.03;34.50;;;7.50;68.90;;;;;;6124591;22;99259;-70
2022/03/01 08:39:54;;;;;;;18.73;14.77;;;7.50;68.50;;;;;;6124641;22;98955;-70
2022/03/01 08:42:21;;;;;;;20.52;14.27;;;7.50;68.40;;;;;;6151300;22;98502;-70
2022/03/01 08:44:49;;;;;;;22.05;13.38;;;7.60;67.80;;;;;;6125083;22;97877;-70
2022/03/01 08:47:16;;;;;;;26.17;22.77;;;7.60;68.10;;;;;;6123893;22;110110;-71
2022/03/01 08:49:43;;;;;;;20.90;14.90;;;7.60;67.70;;;;;;6124540;22;99069;-71
2022/03/01 08:52:10;;;;;;;19.55;13.52;;;7.60;67.80;;;;;;6099460;22;99219;-70
2022/03/01 08:54:36;;;;;;;21.60;14.05;;;7.70;68.00;;;;;;6151020;22;98484;-70
2022/03/01 08:57:04;;;;;;;20.48;12.93;;;7.70;68.10;;;;;;6151069;22;99166;-70
2022/03/01 08:59:31;;;;;;;23.20;13.77;;;7.70;67.70;;;;;;6124096;22;100572;-70
2022/03/01 09:01:58;;;;;;;22.10;17.98;;;7.80;67.40;;;;;;6124210;22;98472;-70
2022/03/01 09:04:25;;;;;;;21.17;15.50;;;7.80;67.70;;;;;;6124403;22;98553;-70
2022/03/01 09:06:52;;;;;;;21.20;13.68;;;7.80;68.00;;;;;;6150637;22;99277;-70
2022/03/01 09:09:19;;;;;;;20.95;14.60;;;8.00;67.10;;;;;;6151220;22;98986;-70
2022/03/01 09:11:46;;;;;;;20.02;13.73;;;8.00;67.40;;;;;;6123475;22;104097;-70
2022/03/01 09:14:13;;;;;;;19.70;14.43;;;8.10;66.70;;;;;;6151037;22;98480;-70
2022/03/01 09:16:41;;;;;;;19.38;14.77;;;8.20;66.90;;;;;;6123760;22;100070;-70
2022/03/01 09:19:10;;;;;;;19.80;14.57;;;8.40;66.30;;;;;;6123681;22;100956;-70
2022/03/01 09:21:38;;;;;;;18.88;13.25;;;8.50;66.20;;;;;;6124644;22;98496;-70
2022/03/01 09:24:05;;;;;;;18.48;14.05;;;8.70;65.90;;;;;;6124561;22;98624;-71
2022/03/01 09:26:32;;;;;;;24.17;14.95;;;8.90;66.00;;;;;;6123858;22;102016;-71
2022/03/01 09:28:59;;;;;;;18.20;13.27;;;9.00;64.70;;;;;;6123944;22;99034;-70
2022/03/01 09:31:26;;;;;;;19.25;13.32;;;9.10;64.70;;;;;;6151236;22;98457;-70
2022/03/01 09:33:54;;;;;;;17.23;13.13;;;9.10;64.80;;;;;;6125012;22;97739;-71
2022/03/01 09:36:21;;;;;;;19.27;14.15;;;9.30;64.20;;;;;;6123994;22;101718;-71
2022/03/01 09:38:48;;;;;;;17.63;13.52;;;9.40;63.70;;;;;;6099068;22;101886;-70
2022/03/01 09:41:15;;;;;;;16.63;12.93;;;9.60;63.70;;;;;;6150140;22;99204;-71
2022/03/01 09:43:43;;;;;;;20.65;13.73;;;9.70;63.20;;;;;;6151152;22;99181;-70
2022/03/01 09:46:14;;;;;;;17.08;12.75;;;9.80;63.10;;;;;;6150725;22;99128;-71
2022/03/01 09:48:41;;;;;;;18.13;13.98;;;9.90;62.50;;;;;;6150568;22;98911;-71
2022/03/01 09:51:08;;;;;;;17.63;13.18;;;10.00;63.00;;;;;;6124429;22;98455;-70
2022/03/01 09:53:39;;;;;;;17.40;13.10;;;10.20;61.80;;;;;;6124661;22;98690;-71
2022/03/01 09:56:07;;;;;;;18.20;12.85;;;10.30;61.20;;;;;;6100236;22;99209;-70
2022/03/01 09:58:36;;;;;;;18.52;13.35;;;10.40;61.40;;;;;;6123922;22;101869;-71
2022/03/01 10:01:03;;;;;;;16.65;13.00;;;10.50;60.90;;;;;;6150471;22;98910;-70
2022/03/01 10:03:35;;;;;;;18.73;14.15;;;10.70;60.90;;;;;;6150968;22;98486;-71
2022/03/01 10:06:11;;;;;;;17.00;12.73;;;10.80;60.70;;;;;;6123180;22;101317;-71
2022/03/01 10:08:39;;;;;;;16.58;13.48;;;10.90;60.50;;;;;;6123875;22;102362;-71
2022/03/01 10:11:06;;;;;;;18.30;13.70;;;11.00;60.10;;;;;;6150655;22;98489;-71
2022/03/01 10:13:35;;;;;;;18.73;13.68;;;11.20;59.20;;;;;;6150925;22;98519;-71
2022/03/01 10:16:12;;;;;;;18.95;14.02;;;11.30;59.10;;;;;;6123858;22;99300;-71
2022/03/01 10:18:52;;;;;;;18.98;12.88;;;11.50;59.40;;;;;;6123972;22;101746;-71
2022/03/01 10:21:21;;;;;;;18.55;13.45;;;11.50;58.30;;;;;;6124763;22;98933;-71
2022/03/01 10:23:50;;;;;;;17.05;13.00;;;11.40;58.90;;;;;;6123970;22;97780;-71
2022/03/01 10:26:20;;;;;;;19.08;12.25;;;11.40;59.10;;;;;;6150196;22;99334;-71
2022/03/01 10:28:49;;;;;;;16.15;13.45;;;11.40;58.60;;;;;;6123352;22;101442;-71
2022/03/01 10:31:18;;;;;;;17.58;13.70;;;11.30;58.50;;;;;;6123512;22;99250;-71
2022/03/01 10:34:11;;;;;;;17.20;13.23;;;11.30;58.60;;;;;;6150821;22;98503;-71
2022/03/01 10:36:49;;;;;;;18.17;13.13;;;11.40;58.10;;;;;;6150326;22;99133;-70
2022/03/01 10:39:27;;;;;;;16.20;13.15;;;11.50;58.60;;;;;;6150244;22;98986;-71
2022/03/01 10:41:54;;;;;;;17.13;13.50;;;11.50;58.90;;;;;;6123952;22;98509;-71
2022/03/01 10:44:25;;;;;;;18.17;13.52;;;11.60;58.40;;;;;;6124406;22;98492;-71
2022/03/01 10:46:55;;;;;;;17.95;12.82;;;11.70;58.20;;;;;;6149856;22;99003;-70
2022/03/01 10:49:32;;;;;;;16.92;13.30;;;11.70;57.90;;;;;;6123637;22;101870;-71
2022/03/01 10:52:05;;;;;;;33.08;23.80;;;11.80;57.60;;;;;;6150729;22;98337;-71
2022/03/01 10:54:40;;;;;;;17.80;13.73;;;11.80;57.40;;;;;;6151991;22;98472;-71
2022/03/01 10:57:10;;;;;;;23.38;17.25;;;11.80;57.90;;;;;;6124285;22;100032;-71
2022/03/01 10:59:40;;;;;;;17.77;13.90;;;11.70;57.90;;;;;;6124171;22;116017;-71
2022/03/01 11:02:07;;;;;;;17.33;13.98;;;11.70;57.60;;;;;;6124652;22;99279;-70
2022/03/01 11:04:34;;;;;;;16.95;15.07;;;11.70;57.70;;;;;;6151770;22;98495;-71
2022/03/01 11:07:04;;;;;;;16.52;13.30;;;11.80;58.00;;;;;;6100028;22;99155;-71
2022/03/01 11:09:33;;;;;;;15.73;12.50;;;11.80;57.40;;;;;;6125155;22;99006;-71
2022/03/01 11:12:01;;;;;;;17.00;13.40;;;11.80;57.90;;;;;;6124643;22;98620;-71
2022/03/01 11:14:41;;;;;;;16.17;13.40;;;11.90;57.30;;;;;;6152322;22;98162;-71
2022/03/01 11:17:26;;;;;;;15.93;13.68;;;12.10;57.00;;;;;;6125317;22;99237;-71
2022/03/01 11:20:05;;;;;;;17.10;13.23;;;12.30;56.90;;;;;;6124494;22;101758;-70
2022/03/01 11:23:09;;;;;;;16.23;13.43;;;12.40;57.50;;;;;;6151328;22;99102;-71
2022/03/01 11:25:42;;;;;;;16.63;12.35;;;12.70;56.50;;;;;;6151723;22;98378;-71
2022/03/01 11:28:10;;;;;;;16.40;12.32;;;12.80;55.70;;;;;;6124601;22;99068;-71
2022/03/01 11:30:40;;;;;;;15.15;12.60;;;12.90;54.90;;;;;;6124994;22;99165;-71
2022/03/01 11:33:08;;;;;;;14.27;12.05;;;13.10;53.70;;;;;;6125392;22;99020;-71
2022/03/01 11:35:50;;;;;;;18.80;12.35;;;13.30;53.40;;;;;;6124598;22;98615;-71
2022/03/01 11:38:18;;;;;;;14.70;12.15;;;13.30;52.70;;;;;;6124661;22;98978;-71
2022/03/01 11:40:52;;;;;;;18.67;13.25;;;13.40;53.10;;;;;;6124904;22;100147;-71
2022/03/01 11:43:27;;;;;;;13.80;12.35;;;13.50;52.40;;;;;;6151514;22;98828;-71
2022/03/01 11:45:58;;;;;;;15.35;12.80;;;13.60;52.10;;;;;;6124858;22;98600;-71
2022/03/01 11:48:28;;;;;;;18.23;13.65;;;13.80;52.30;;;;;;6150669;22;99977;-71
2022/03/01 11:51:05;;;;;;;16.55;14.10;;;13.90;51.90;;;;;;6125001;22;99503;-71
2022/03/01 11:53:38;;;;;;;17.25;14.85;;;14.00;51.00;;;;;;6151584;22;98357;-71
2022/03/01 11:56:07;;;;;;;17.17;14.60;;;14.00;51.00;;;;;;6100194;22;98478;-71
2022/03/01 11:58:37;;;;;;;18.13;14.38;;;14.10;51.30;;;;;;6151129;22;99143;-71
2022/03/01 12:01:06;;;;;;;13.85;11.55;;;14.10;51.10;;;;;;6150983;22;99380;-71
2022/03/01 12:03:36;;;;;;;15.48;12.45;;;14.20;50.90;;;;;;6124982;22;98653;-71
2022/03/01 12:06:05;;;;;;;17.83;13.48;;;14.20;51.00;;;;;;6124897;22;97822;-71
2022/03/01 12:08:36;;;;;;;15.38;13.52;;;14.20;51.00;;;;;;6124697;22;99237;-71
2022/03/01 12:11:03;;;;;;;15.43;13.23;;;14.20;50.70;;;;;;6124362;22;99018;-71
2022/03/01 12:13:38;;;;;;;16.02;13.65;;;14.30;50.30;;;;;;6124282;22;99211;-71
2022/03/01 12:16:07;;;;;;;16.48;13.05;;;14.40;50.40;;;;;;6150892;22;98881;-78
2022/03/01 12:18:37;;;;;;;16.25;13.00;;;14.40;50.00;;;;;;6150515;22;99451;-72
2022/03/01 12:21:06;;;;;;;16.75;13.70;;;14.50;50.10;;;;;;6150464;22;98944;-71
2022/03/01 12:23:38;;;;;;;15.38;13.55;;;14.60;49.90;;;;;;6124822;22;98488;-77
2022/03/01 12:26:07;;;;;;;17.25;14.00;;;14.60;49.90;;;;;;6123910;22;98533;-73
2022/03/01 12:28:41;;;;;;;22.08;14.23;;;14.70;49.30;;;;;;6150957;22;99180;-72
2022/03/01 12:31:09;;;;;;;;;;;14.80;49.50;;;;;;6151797;22;99103;-72
2022/03/01 12:33:47;;;;;;;16.70;12.27;;;14.70;49.00;;;;;;6153515;22;98493;-72
2022/03/01 12:36:26;;;;;;;16.73;13.05;;;14.90;49.50;;;;;;6151238;22;98433;-72
2022/03/01 12:38:55;;;;;;;15.55;13.38;;;15.00;49.40;;;;;;6150445;22;99888;-73
2022/03/01 12:41:23;;;;;;;16.50;13.20;;;15.00;49.30;;;;;;6124243;22;99833;-73